Time;durP1;ratioP1;P1;durP2;ratioP2;P2;SDS_P1;SDS_P2;PMS_P1;PMS_P2;Temp;Humidity;BMP_temperature;BMP_pressure;BME280_temperature;BME280_humidity;BME280_pressure;Samples;Min_cycle;Max_cycle;Signal;HPM_P1;HPM_P2
2023/06/25 00:01:50;;;;;;;38.17;34.88;;;19.90;56.20;;;;;;5031933;28;20411;-68
2023/06/25 00:04:16;;;;;;;37.28;34.08;;;19.80;98.00;;;;;;5031412;28;20033;-68
2023/06/25 00:06:41;;;;;;;38.08;34.78;;;20.00;99.90;;;;;;5028764;28;20377;-68
2023/06/25 00:09:07;;;;;;;37.70;34.55;;;19.80;99.90;;;;;;5017866;28;20044;-68
2023/06/25 00:11:32;;;;;;;37.95;34.95;;;19.90;99.90;;;;;;5037240;28;20086;-68
2023/06/25 00:13:58;;;;;;;37.53;34.22;;;19.70;99.90;;;;;;5035719;28;20085;-68
2023/06/25 00:16:25;;;;;;;38.63;35.42;;;19.60;99.90;;;;;;5030157;28;20033;-67
2023/06/25 00:18:51;;;;;;;38.08;34.97;;;19.50;99.90;;;;;;5030984;28;20116;-68
2023/06/25 00:21:16;;;;;;;39.15;35.95;;;19.40;99.90;;;;;;5029789;28;20152;-68
2023/06/25 00:23:42;;;;;;;38.53;35.42;;;19.60;99.90;;;;;;5030635;28;20124;-67
2023/06/25 00:26:07;;;;;;;39.08;35.65;;;19.60;99.90;;;;;;5035610;28;20667;-67
2023/06/25 00:28:33;;;;;;;40.10;36.28;;;19.40;1.00;;;;;;5049718;28;20403;-68
2023/06/25 00:30:58;;;;;;;40.45;36.97;;;19.50;1.00;;;;;;5031190;28;20124;-67
2023/06/25 00:33:24;;;;;;;40.50;36.83;;;19.80;33.90;;;;;;5029599;28;20068;-67
2023/06/25 00:35:49;;;;;;;39.38;35.85;;;19.70;99.90;;;;;;5030983;28;20030;-67
2023/06/25 00:38:15;;;;;;;39.05;35.55;;;19.70;99.90;;;;;;5030978;28;20128;-68
2023/06/25 00:40:41;;;;;;;39.70;36.20;;;19.50;99.90;;;;;;5033415;28;20458;-67
2023/06/25 00:43:06;;;;;;;38.03;34.80;;;19.80;1.00;;;;;;5050144;28;20053;-68
2023/06/25 00:45:34;;;;;;;39.58;36.00;;;19.80;1.00;;;;;;5046939;28;20502;-67
2023/06/25 00:48:01;;;;;;;39.55;35.92;;;19.70;1.00;;;;;;5030912;28;20045;-67
2023/06/25 00:50:27;;;;;;;40.40;36.88;;;19.60;1.00;;;;;;5030669;28;20081;-68
2023/06/25 00:52:53;;;;;;;39.80;36.25;;;19.30;1.00;;;;;;5030025;28;20084;-67
2023/06/25 00:55:20;;;;;;;40.33;36.47;;;19.20;83.00;;;;;;5030966;28;20033;-68
2023/06/25 00:57:46;;;;;;;40.92;37.30;;;19.30;99.90;;;;;;5043546;28;20140;-68
2023/06/25 01:00:15;;;;;;;41.33;37.83;;;19.40;99.90;;;;;;5036251;28;20137;-68
2023/06/25 01:02:53;;;;;;;40.88;37.38;;;19.20;99.90;;;;;;5030653;28;20041;-68
2023/06/25 01:05:26;;;;;;;42.83;39.00;;;18.90;1.00;;;;;;5029112;28;20388;-68
2023/06/25 01:07:57;;;;;;;41.55;37.97;;;19.30;1.00;;;;;;5030205;28;20595;-68
2023/06/25 01:10:23;;;;;;;41.40;37.70;;;19.00;99.90;;;;;;5029929;28;20037;-68
2023/06/25 01:12:48;;;;;;;42.03;38.33;;;19.30;99.90;;;;;;5045858;28;20043;-68
2023/06/25 01:15:14;;;;;;;40.90;36.90;;;19.30;99.90;;;;;;5033738;28;20043;-68
2023/06/25 01:17:40;;;;;;;39.92;36.58;;;19.30;99.90;;;;;;5030163;28;20055;-68
2023/06/25 01:20:11;;;;;;;41.40;37.70;;;19.10;99.90;;;;;;5045046;28;20519;-67
2023/06/25 01:22:39;;;;;;;41.17;37.22;;;19.00;99.90;;;;;;5030468;28;20115;-67
2023/06/25 01:25:05;;;;;;;39.90;36.40;;;19.00;99.90;;;;;;5029949;28;20080;-68
2023/06/25 01:27:34;;;;;;;41.50;37.88;;;19.10;99.90;;;;;;5030160;28;20056;-68
2023/06/25 01:30:00;;;;;;;41.47;37.72;;;19.20;99.90;;;;;;5029950;28;20033;-68
2023/06/25 01:32:26;;;;;;;41.22;37.55;;;18.80;99.90;;;;;;5030054;28;20045;-67
2023/06/25 01:34:51;;;;;;;41.60;37.90;;;19.10;99.90;;;;;;5030334;28;20542;-68
2023/06/25 01:37:17;;;;;;;41.80;37.88;;;19.10;99.90;;;;;;5032906;28;20037;-67
2023/06/25 01:39:49;;;;;;;40.65;36.97;;;19.00;99.90;;;;;;5040050;28;20049;-68
2023/06/25 01:42:15;;;;;;;42.00;38.28;;;19.10;99.90;;;;;;5029442;28;20049;-68
2023/06/25 01:44:41;;;;;;;41.97;38.35;;;18.60;99.90;;;;;;5030086;28;20057;-68
2023/06/25 01:47:06;;;;;;;42.97;38.97;;;18.70;99.90;;;;;;5035639;28;20033;-67
2023/06/25 01:49:32;;;;;;;41.83;37.92;;;18.60;99.90;;;;;;5041598;28;20171;-68
2023/06/25 01:51:58;;;;;;;41.50;37.83;;;19.00;99.90;;;;;;5030003;28;20564;-67
2023/06/25 01:54:23;;;;;;;41.53;37.40;;;19.00;99.90;;;;;;5029628;28;20041;-67
2023/06/25 01:56:49;;;;;;;40.60;36.90;;;18.80;99.90;;;;;;5029938;28;20041;-67
2023/06/25 01:59:14;;;;;;;41.97;38.20;;;19.00;99.90;;;;;;5029228;28;20096;-68
2023/06/25 02:01:40;;;;;;;41.53;37.85;;;18.50;99.90;;;;;;5028996;28;20041;-67
2023/06/25 02:04:05;;;;;;;41.75;38.15;;;18.50;99.90;;;;;;5053175;28;20049;-68
2023/06/25 02:06:31;;;;;;;42.67;38.88;;;18.90;99.90;;;;;;5031208;28;20041;-67
2023/06/25 02:08:56;;;;;;;42.35;38.38;;;18.80;99.90;;;;;;5011212;28;20060;-68
2023/06/25 02:11:22;;;;;;;42.80;38.97;;;18.50;99.90;;;;;;5029308;28;20056;-68
2023/06/25 02:13:48;;;;;;;43.00;39.13;;;18.40;99.90;;;;;;5029704;28;20038;-67
2023/06/25 02:16:13;;;;;;;43.70;39.65;;;18.30;99.90;;;;;;5029588;28;20087;-68
2023/06/25 02:18:40;;;;;;;43.20;39.40;;;18.60;99.90;;;;;;5029879;28;20053;-67
2023/06/25 02:21:05;;;;;;;42.70;38.90;;;18.50;99.90;;;;;;5031333;28;20134;-68
2023/06/25 02:23:31;;;;;;;45.08;40.53;;;18.80;99.90;;;;;;5048938;28;20049;-67
2023/06/25 02:25:57;;;;;;;42.25;38.55;;;18.50;99.90;;;;;;5037519;28;20060;-68
2023/06/25 02:28:22;;;;;;;44.22;40.15;;;18.30;99.90;;;;;;5029562;28;20084;-68
2023/06/25 02:30:48;;;;;;;43.33;39.22;;;18.30;99.90;;;;;;5027765;28;20524;-68
2023/06/25 02:33:14;;;;;;;42.97;39.28;;;18.60;99.90;;;;;;5029269;28;20709;-68
2023/06/25 02:35:40;;;;;;;44.55;40.53;;;18.20;99.90;;;;;;5029288;28;20511;-68
2023/06/25 02:38:06;;;;;;;44.17;40.05;;;18.20;99.90;;;;;;5033323;28;20115;-68
2023/06/25 02:40:32;;;;;;;44.17;40.17;;;18.20;99.90;;;;;;5033889;28;20607;-68
2023/06/25 02:42:57;;;;;;;45.42;41.15;;;18.10;99.90;;;;;;5029182;28;20053;-67
2023/06/25 02:45:24;;;;;;;44.40;40.33;;;18.60;99.90;;;;;;5028762;28;20048;-67
2023/06/25 02:47:49;;;;;;;44.30;40.08;;;18.20;99.90;;;;;;5029230;28;20049;-67
2023/06/25 02:50:16;;;;;;;43.90;39.85;;;18.70;99.90;;;;;;5029256;28;20045;-68
2023/06/25 02:52:42;;;;;;;43.40;39.58;;;18.50;99.90;;;;;;5030248;28;20038;-68
2023/06/25 02:55:08;;;;;;;45.13;40.92;;;18.70;99.90;;;;;;5043136;28;20073;-68
2023/06/25 02:57:34;;;;;;;44.25;40.30;;;18.30;99.90;;;;;;5032731;28;20033;-68
2023/06/25 03:00:00;;;;;;;43.75;39.75;;;18.10;99.90;;;;;;5032588;28;20037;-68
2023/06/25 03:02:26;;;;;;;45.45;41.17;;;18.60;99.90;;;;;;5032580;28;20557;-67
2023/06/25 03:04:52;;;;;;;45.90;41.72;;;18.10;99.90;;;;;;5030799;28;20069;-68
2023/06/25 03:07:17;;;;;;;44.47;40.47;;;18.40;99.90;;;;;;5013316;28;20150;-67
2023/06/25 03:09:43;;;;;;;45.50;41.50;;;18.20;99.90;;;;;;5029658;28;20041;-68
2023/06/25 03:12:09;;;;;;;47.17;42.88;;;18.20;99.90;;;;;;5032319;28;20033;-67
2023/06/25 03:14:36;;;;;;;44.53;40.40;;;18.10;99.90;;;;;;5031664;28;20065;-67
2023/06/25 03:17:03;;;;;;;46.30;41.65;;;18.50;99.90;;;;;;5032392;28;20064;-68
2023/06/25 03:19:28;;;;;;;46.35;42.15;;;18.10;99.90;;;;;;5032303;28;20042;-67
2023/06/25 03:21:54;;;;;;;46.65;42.40;;;18.20;99.90;;;;;;5032651;28;20045;-67
2023/06/25 03:24:19;;;;;;;45.83;41.63;;;18.60;99.90;;;;;;5041919;28;20052;-68
2023/06/25 03:26:45;;;;;;;47.08;42.67;;;18.70;99.90;;;;;;5035830;28;20056;-67
2023/06/25 03:29:11;;;;;;;46.45;41.97;;;18.70;99.90;;;;;;5031901;28;20044;-68
2023/06/25 03:31:36;;;;;;;46.20;41.72;;;18.10;99.90;;;;;;5032008;28;20123;-67
2023/06/25 03:34:02;;;;;;;46.05;41.75;;;18.70;99.90;;;;;;5032452;28;20240;-67
2023/06/25 03:36:27;;;;;;;47.33;42.75;;;18.70;99.90;;;;;;5031083;28;20128;-67
2023/06/25 03:38:53;;;;;;;45.33;40.97;;;18.70;99.90;;;;;;5041411;28;20056;-68
2023/06/25 03:41:19;;;;;;;44.78;40.65;;;18.70;99.90;;;;;;5033042;28;20481;-67
2023/06/25 03:43:44;;;;;;;45.95;41.50;;;18.70;99.90;;;;;;5032254;28;20103;-67
2023/06/25 03:46:10;;;;;;;46.75;42.38;;;18.90;99.90;;;;;;5031873;28;20475;-67
2023/06/25 03:48:37;;;;;;;45.25;41.05;;;18.90;99.90;;;;;;5031573;28;20408;-67
2023/06/25 03:51:02;;;;;;;46.88;42.25;;;18.50;99.90;;;;;;5032066;28;20380;-67
2023/06/25 03:53:29;;;;;;;45.72;41.38;;;18.70;99.90;;;;;;5039932;28;20047;-68
2023/06/25 03:55:55;;;;;;;46.13;41.65;;;18.70;99.90;;;;;;5043601;28;20372;-67
2023/06/25 03:58:20;;;;;;;46.45;42.10;;;18.30;99.90;;;;;;5041099;28;20044;-67
2023/06/25 04:00:46;;;;;;;44.72;40.58;;;18.70;99.90;;;;;;5031853;28;20129;-68
2023/06/25 04:03:11;;;;;;;46.35;42.22;;;18.50;99.90;;;;;;5027008;28;20048;-68
2023/06/25 04:05:37;;;;;;;47.38;42.83;;;18.80;99.90;;;;;;5011843;28;20124;-67
2023/06/25 04:08:03;;;;;;;47.30;42.85;;;18.20;99.90;;;;;;5018699;28;20087;-68
2023/06/25 04:10:29;;;;;;;46.88;42.47;;;18.80;99.90;;;;;;5018525;28;20047;-68
2023/06/25 04:12:54;;;;;;;45.80;41.67;;;18.90;99.90;;;;;;5036877;28;20032;-68
2023/06/25 04:15:20;;;;;;;44.60;40.47;;;18.40;99.90;;;;;;5051158;28;20098;-67
2023/06/25 04:17:47;;;;;;;45.95;41.75;;;18.20;99.90;;;;;;5046888;28;20045;-68
2023/06/25 04:20:13;;;;;;;45.55;41.38;;;18.80;99.90;;;;;;5046458;28;20034;-67
2023/06/25 04:22:38;;;;;;;47.45;42.63;;;19.00;99.90;;;;;;5031739;28;20045;-68
2023/06/25 04:25:05;;;;;;;46.80;42.33;;;18.90;99.90;;;;;;5031625;28;20083;-67
2023/06/25 04:27:31;;;;;;;46.95;42.67;;;19.00;99.90;;;;;;5031087;28;20563;-68
2023/06/25 04:29:56;;;;;;;46.47;42.08;;;19.00;99.90;;;;;;5035922;28;20144;-67
2023/06/25 04:32:22;;;;;;;44.67;40.55;;;19.10;99.90;;;;;;5031394;28;20423;-67
2023/06/25 04:34:48;;;;;;;44.92;40.97;;;19.10;99.90;;;;;;5031469;28;20044;-67
2023/06/25 04:37:13;;;;;;;45.28;41.17;;;18.60;99.90;;;;;;5030707;28;20033;-68
2023/06/25 04:39:40;;;;;;;45.80;41.60;;;18.50;99.90;;;;;;5029395;28;20045;-68
2023/06/25 04:42:06;;;;;;;45.83;41.65;;;19.20;99.90;;;;;;5030884;28;20056;-68
2023/06/25 04:44:32;;;;;;;46.33;41.97;;;18.90;99.90;;;;;;5045139;28;20060;-68
2023/06/25 04:46:57;;;;;;;46.63;42.33;;;18.70;99.90;;;;;;5044359;28;20045;-67
2023/06/25 04:49:23;;;;;;;44.58;40.35;;;18.70;99.90;;;;;;5030596;28;20041;-68
2023/06/25 04:51:48;;;;;;;44.67;40.55;;;18.80;99.90;;;;;;5030832;28;20498;-68
2023/06/25 04:54:14;;;;;;;45.53;41.03;;;19.40;99.90;;;;;;5030961;28;20103;-67
2023/06/25 04:56:40;;;;;;;45.92;41.60;;;19.20;99.90;;;;;;5030662;28;20055;-67
2023/06/25 04:59:05;;;;;;;43.88;39.75;;;19.20;99.90;;;;;;5029633;28;20045;-68
2023/06/25 05:01:32;;;;;;;44.97;40.78;;;19.50;99.90;;;;;;5029966;28;20037;-68
2023/06/25 05:03:58;;;;;;;44.58;40.38;;;19.10;99.90;;;;;;5061572;28;20049;-67
2023/06/25 05:06:23;;;;;;;45.65;41.10;;;19.20;99.90;;;;;;5030182;28;20052;-68
2023/06/25 05:08:49;;;;;;;45.92;41.65;;;19.60;99.90;;;;;;5029747;28;20033;-68
2023/06/25 05:11:15;;;;;;;44.90;40.63;;;19.20;99.90;;;;;;5028865;28;20060;-68
2023/06/25 05:13:41;;;;;;;45.10;40.80;;;19.90;99.90;;;;;;5030076;28;20026;-67
2023/06/25 05:16:06;;;;;;;43.95;39.80;;;19.90;99.90;;;;;;5029042;28;20171;-68
2023/06/25 05:18:32;;;;;;;43.45;39.55;;;19.70;99.90;;;;;;5031442;28;20116;-68
2023/06/25 05:20:58;;;;;;;44.90;40.75;;;19.70;99.90;;;;;;5029641;28;20206;-68
2023/06/25 05:23:25;;;;;;;42.90;38.90;;;19.60;99.90;;;;;;5024683;28;20041;-67
2023/06/25 05:25:51;;;;;;;41.40;37.63;;;20.10;99.90;;;;;;5024499;28;20041;-67
2023/06/25 05:28:16;;;;;;;44.72;40.63;;;19.80;99.90;;;;;;5027246;28;20049;-67
2023/06/25 05:30:42;;;;;;;41.42;37.65;;;20.20;99.90;;;;;;5027487;28;20040;-68
2023/06/25 05:33:08;;;;;;;41.45;37.75;;;19.80;99.90;;;;;;5026030;28;20072;-67
2023/06/25 05:35:33;;;;;;;42.75;38.95;;;20.30;99.90;;;;;;5029813;28;20132;-67
2023/06/25 05:37:59;;;;;;;42.38;38.30;;;20.00;99.90;;;;;;5030011;28;20044;-67
2023/06/25 05:40:26;;;;;;;40.55;36.85;;;20.50;99.90;;;;;;5029818;28;20037;-68
2023/06/25 05:42:52;;;;;;;42.83;38.83;;;20.60;99.90;;;;;;5029680;28;20049;-67
2023/06/25 05:45:18;;;;;;;42.75;38.45;;;20.70;99.90;;;;;;5030610;28;20108;-68
2023/06/25 05:47:43;;;;;;;40.08;36.42;;;20.60;99.90;;;;;;5034281;28;20499;-67
2023/06/25 05:50:09;;;;;;;41.40;37.47;;;20.40;99.90;;;;;;5035804;28;20069;-68
2023/06/25 05:52:35;;;;;;;42.83;38.45;;;20.50;99.90;;;;;;5029820;28;20391;-67
2023/06/25 05:55:01;;;;;;;39.25;35.80;;;21.00;99.90;;;;;;5030036;28;20033;-67
2023/06/25 05:57:26;;;;;;;41.20;37.38;;;20.60;99.90;;;;;;5029079;28;20059;-67
2023/06/25 05:59:52;;;;;;;42.00;38.13;;;21.00;1.00;;;;;;5043546;28;20103;-67
2023/06/25 06:02:17;;;;;;;40.72;36.97;;;21.10;99.90;;;;;;5029151;28;20029;-68
2023/06/25 06:04:43;;;;;;;40.10;36.25;;;21.20;39.40;;;;;;5016514;28;20052;-67
2023/06/25 06:07:08;;;;;;;40.70;36.83;;;21.00;99.90;;;;;;5015846;28;20026;-68
2023/06/25 06:09:35;;;;;;;38.88;35.35;;;21.10;95.30;;;;;;5010426;28;20038;-67
2023/06/25 06:12:00;;;;;;;40.15;36.47;;;21.40;99.90;;;;;;5015612;28;20046;-68
2023/06/25 06:14:26;;;;;;;40.00;36.47;;;21.60;99.90;;;;;;5021566;28;20039;-68
2023/06/25 06:16:52;;;;;;;37.15;33.75;;;21.40;1.00;;;;;;5024667;28;20060;-67
2023/06/25 06:19:17;;;;;;;36.92;33.72;;;21.80;99.90;;;;;;5029557;28;20038;-67
2023/06/25 06:21:43;;;;;;;36.13;32.97;;;21.70;99.90;;;;;;5028733;28;20124;-68
2023/06/25 06:24:08;;;;;;;35.58;32.47;;;21.80;1.00;;;;;;5021460;28;20073;-67
2023/06/25 06:26:37;;;;;;;34.60;31.70;;;21.80;1.00;;;;;;5021841;28;20045;-67
2023/06/25 06:29:03;;;;;;;33.60;30.80;;;22.10;99.90;;;;;;5015314;28;20049;-68
2023/06/25 06:31:31;;;;;;;34.83;31.73;;;22.20;1.00;;;;;;5026195;28;20036;-68
2023/06/25 06:33:57;;;;;;;35.50;32.33;;;22.20;99.90;;;;;;5031752;28;20056;-67
2023/06/25 06:36:23;;;;;;;38.03;32.22;;;22.40;21.10;;;;;;5032937;28;20041;-68
2023/06/25 06:38:48;;;;;;;34.97;32.05;;;22.60;1.00;;;;;;5024226;28;20039;-69
2023/06/25 06:41:14;;;;;;;34.40;31.27;;;22.80;99.90;;;;;;5061700;28;20549;-67
2023/06/25 06:43:39;;;;;;;32.65;29.85;;;22.90;99.90;;;;;;5026084;28;20510;-68
2023/06/25 06:46:05;;;;;;;33.50;30.38;;;23.10;1.00;;;;;;5017429;28;20420;-67
2023/06/25 06:48:31;;;;;;;34.60;31.48;;;23.20;99.90;;;;;;5026402;28;20045;-67
2023/06/25 06:50:56;;;;;;;33.60;30.70;;;23.30;99.90;;;;;;5042167;28;20037;-68
2023/06/25 06:53:22;;;;;;;33.00;30.13;;;23.40;99.90;;;;;;5025844;28;20455;-67
2023/06/25 06:55:47;;;;;;;33.83;30.73;;;23.50;44.30;;;;;;5031557;28;20048;-68
2023/06/25 06:58:13;;;;;;;32.30;29.02;;;23.60;1.00;;;;;;5037065;28;20087;-68
2023/06/25 07:00:39;;;;;;;31.00;28.13;;;23.90;1.00;;;;;;5027611;28;20049;-67
2023/06/25 07:03:04;;;;;;;30.77;27.95;;;23.90;1.00;;;;;;5028951;28;20029;-67
2023/06/25 07:05:30;;;;;;;32.75;29.75;;;24.20;99.90;;;;;;5032009;28;20037;-68
2023/06/25 07:07:55;;;;;;;29.20;26.65;;;24.30;99.90;;;;;;5007005;28;20045;-68
2023/06/25 07:10:21;;;;;;;31.02;28.42;;;24.50;99.90;;;;;;5023973;28;20034;-68
2023/06/25 07:12:46;;;;;;;29.92;27.08;;;24.70;99.90;;;;;;5022264;28;20046;-68
2023/06/25 07:15:12;;;;;;;26.42;24.02;;;24.80;99.90;;;;;;5030381;28;20041;-68
2023/06/25 07:17:38;;;;;;;29.15;26.23;;;25.00;51.90;;;;;;5030934;28;20033;-68
2023/06/25 07:20:04;;;;;;;28.98;26.33;;;25.00;1.30;;;;;;5031192;28;20428;-68
2023/06/25 07:22:29;;;;;;;27.42;24.77;;;25.20;1.00;;;;;;5032333;28;20501;-67
2023/06/25 07:24:55;;;;;;;28.23;25.58;;;25.30;1.00;;;;;;5032656;28;20042;-68
2023/06/25 07:27:20;;;;;;;26.58;24.27;;;25.50;1.00;;;;;;5033866;28;20482;-68
2023/06/25 07:29:46;;;;;;;27.98;25.65;;;25.50;1.00;;;;;;5041238;28;20049;-68
2023/06/25 07:32:11;;;;;;;29.15;26.17;;;25.60;1.00;;;;;;5029923;28;20030;-68
2023/06/25 07:34:37;;;;;;;28.20;25.60;;;25.70;1.00;;;;;;5055780;28;20053;-67
2023/06/25 07:37:03;;;;;;;25.88;23.58;;;26.00;1.00;;;;;;5026851;28;20407;-67
2023/06/25 07:39:29;;;;;;;23.05;21.02;;;26.20;99.90;;;;;;5024018;28;20434;-68
2023/06/25 07:41:59;;;;;;;20.70;18.92;;;26.50;99.90;;;;;;5029713;28;20450;-67
2023/06/25 07:44:24;;;;;;;18.48;16.85;;;26.70;99.90;;;;;;5047050;28;20041;-69
2023/06/25 07:46:50;;;;;;;21.50;19.75;;;26.80;99.90;;;;;;5032532;28;20495;-68
2023/06/25 07:49:16;;;;;;;21.00;19.10;;;26.90;99.90;;;;;;5030553;28;20030;-69
2023/06/25 07:51:45;;;;;;;20.63;18.92;;;27.20;99.90;;;;;;5022332;28;20076;-68
2023/06/25 07:54:11;;;;;;;17.38;15.77;;;27.20;99.90;;;;;;5030519;28;20450;-68
2023/06/25 07:56:36;;;;;;;18.90;17.20;;;27.20;99.90;;;;;;5029663;28;20038;-68
2023/06/25 07:59:02;;;;;;;21.75;19.77;;;27.20;99.90;;;;;;5031082;28;20127;-69
2023/06/25 08:01:29;;;;;;;19.42;17.73;;;27.40;99.90;;;;;;5031731;28;20124;-69
2023/06/25 08:03:56;;;;;;;17.98;16.42;;;27.50;99.90;;;;;;5030809;28;20047;-69
2023/06/25 08:06:21;;;;;;;20.70;19.00;;;27.60;99.90;;;;;;5027296;28;20544;-69
2023/06/25 08:08:47;;;;;;;20.88;19.15;;;27.90;99.90;;;;;;5030836;28;20057;-69
2023/06/25 08:11:13;;;;;;;23.92;21.92;;;28.00;99.90;;;;;;5035243;28;20376;-69
2023/06/25 08:13:38;;;;;;;20.98;19.08;;;28.00;94.80;;;;;;5030952;28;20451;-69
2023/06/25 08:16:04;;;;;;;22.15;20.10;;;28.20;99.90;;;;;;5026945;28;20045;-70
2023/06/25 08:18:30;;;;;;;22.52;20.63;;;28.50;91.10;;;;;;5024450;28;20046;-67
2023/06/25 08:20:55;;;;;;;29.00;26.80;;;28.60;73.80;;;;;;5042928;28;20120;-68
2023/06/25 08:23:21;;;;;;;38.80;35.90;;;28.60;34.50;;;;;;5051611;28;20072;-67
2023/06/25 08:25:47;;;;;;;58.42;54.35;;;28.60;19.30;;;;;;5037112;28;20073;-68
2023/06/25 08:28:13;;;;;;;44.13;40.83;;;28.60;14.70;;;;;;5030997;28;20033;-67
2023/06/25 08:30:39;;;;;;;12.23;11.05;;;28.90;16.60;;;;;;5041953;28;20050;-67
2023/06/25 08:33:04;;;;;;;15.13;10.13;;;29.00;6.00;;;;;;5051557;28;20487;-68
2023/06/25 08:35:30;;;;;;;11.07;9.48;;;29.10;1.00;;;;;;5051297;28;20033;-67
2023/06/25 08:37:56;;;;;;;9.73;8.38;;;29.20;1.00;;;;;;5044092;28;20120;-67
2023/06/25 08:40:22;;;;;;;10.52;8.55;;;29.20;1.00;;;;;;5046416;28;20037;-67
2023/06/25 08:42:49;;;;;;;10.40;8.27;;;29.30;1.00;;;;;;5030919;28;20495;-68
2023/06/25 08:45:14;;;;;;;11.68;8.55;;;29.50;1.00;;;;;;5031094;28;20111;-67
2023/06/25 08:47:40;;;;;;;10.27;7.97;;;29.70;1.00;;;;;;5030934;28;20419;-67
2023/06/25 08:50:08;;;;;;;12.88;8.82;;;29.50;1.00;;;;;;5031120;28;20033;-67
2023/06/25 08:52:34;;;;;;;8.80;7.10;;;29.50;1.00;;;;;;5030823;28;20123;-68
2023/06/25 08:55:00;;;;;;;9.48;7.25;;;29.50;1.00;;;;;;5044931;28;20052;-67
2023/06/25 08:57:26;;;;;;;9.90;7.78;;;29.70;1.00;;;;;;5047747;28;20037;-67
2023/06/25 08:59:51;;;;;;;8.65;7.15;;;30.10;1.00;;;;;;5030613;28;20052;-67
2023/06/25 09:02:18;;;;;;;9.48;6.10;;;30.40;1.00;;;;;;5031054;28;20052;-67
2023/06/25 09:04:46;;;;;;;8.25;6.15;;;30.30;1.00;;;;;;5030968;28;20095;-67
2023/06/25 09:07:19;;;;;;;9.77;7.05;;;30.40;1.00;;;;;;5023287;28;20088;-67
2023/06/25 09:09:44;;;;;;;7.30;6.00;;;30.50;1.00;;;;;;5030159;28;20038;-68
2023/06/25 09:12:10;;;;;;;9.52;5.75;;;30.50;1.00;;;;;;5032152;28;20044;-67
2023/06/25 09:14:36;;;;;;;7.35;5.20;;;30.70;1.00;;;;;;5050254;28;20037;-67
2023/06/25 09:17:03;;;;;;;9.55;5.15;;;30.50;1.00;;;;;;5050954;28;20033;-67
2023/06/25 09:19:28;;;;;;;7.78;6.28;;;30.50;1.00;;;;;;5031643;28;20037;-67
2023/06/25 09:21:54;;;;;;;7.30;5.88;;;30.50;1.00;;;;;;5029971;28;20056;-67
2023/06/25 09:24:21;;;;;;;5.88;5.07;;;30.60;1.00;;;;;;5030416;28;20505;-68
2023/06/25 09:26:53;;;;;;;6.38;4.60;;;30.70;1.00;;;;;;5030196;28;20352;-67
2023/06/25 09:29:21;;;;;;;7.22;4.97;;;31.10;1.00;;;;;;5021178;28;20094;-67
2023/06/25 09:31:48;;;;;;;6.05;4.70;;;31.10;99.90;;;;;;5049131;28;20037;-68
2023/06/25 09:34:16;;;;;;;5.88;4.53;;;31.30;99.90;;;;;;5030126;28;20103;-68
2023/06/25 09:36:42;;;;;;;9.82;5.38;;;31.50;99.90;;;;;;5029965;28;20049;-68
2023/06/25 09:39:09;;;;;;;8.75;5.38;;;31.60;99.90;;;;;;5030056;28;20042;-67
2023/06/25 09:41:38;;;;;;;7.63;5.53;;;31.80;99.90;;;;;;5030137;28;20566;-68
2023/06/25 09:44:04;;;;;;;10.02;5.30;;;31.70;99.90;;;;;;5035119;28;20041;-68
2023/06/25 09:46:35;;;;;;;10.07;5.10;;;31.80;99.90;;;;;;5050193;28;20499;-67
2023/06/25 09:49:01;;;;;;;10.15;4.57;;;31.70;99.90;;;;;;5036525;28;20116;-68
2023/06/25 09:52:01;;;;;;;6.47;4.57;;;31.60;99.90;;;;;;5030147;28;20045;-68
2023/06/25 09:54:27;;;;;;;6.15;4.85;;;31.70;99.90;;;;;;5030319;28;20057;-68
2023/06/25 09:56:55;;;;;;;6.03;4.43;;;31.80;99.90;;;;;;5029817;28;20110;-67
2023/06/25 09:59:21;;;;;;;6.25;5.55;;;31.80;99.90;;;;;;5039343;28;20044;-68
2023/06/25 10:01:47;;;;;;;6.30;4.35;;;31.70;99.90;;;;;;5043304;28;20060;-67
2023/06/25 10:04:12;;;;;;;7.20;5.18;;;31.80;99.90;;;;;;5029906;28;20128;-69
2023/06/25 10:06:38;;;;;;;7.32;4.75;;;31.70;99.90;;;;;;5029831;28;20542;-68
2023/06/25 10:09:04;;;;;;;7.20;4.82;;;31.70;99.90;;;;;;5029190;28;20053;-68
2023/06/25 10:11:30;;;;;;;5.00;4.22;;;31.60;99.90;;;;;;5030083;28;20045;-68
2023/06/25 10:13:59;;;;;;;4.90;4.40;;;31.50;99.90;;;;;;5029878;28;20038;-68
2023/06/25 10:16:30;;;;;;;8.13;5.00;;;31.60;99.90;;;;;;5067186;28;20068;-68
2023/06/25 10:18:56;;;;;;;6.82;5.30;;;31.30;99.90;;;;;;5047473;28;20053;-67
2023/06/25 10:21:24;;;;;;;6.32;4.80;;;31.20;99.90;;;;;;5029660;28;20050;-68
2023/06/25 10:24:01;;;;;;;6.32;4.60;;;31.20;99.90;;;;;;5030035;28;20104;-68
2023/06/25 10:26:32;;;;;;;7.35;5.30;;;31.40;99.90;;;;;;5029649;28;20116;-68
2023/06/25 10:29:04;;;;;;;5.05;4.25;;;31.40;99.90;;;;;;5029416;28;20148;-67
2023/06/25 10:31:38;;;;;;;6.05;4.97;;;31.50;99.90;;;;;;5044611;28;20481;-67
2023/06/25 10:34:07;;;;;;;5.00;4.25;;;31.40;99.90;;;;;;5033449;28;20065;-68
2023/06/25 10:36:33;;;;;;;6.22;4.70;;;31.30;99.90;;;;;;5056546;28;20512;-67
2023/06/25 10:38:59;;;;;;;5.38;4.38;;;31.20;99.90;;;;;;5028381;28;20033;-67
2023/06/25 10:41:34;;;;;;;7.18;5.55;;;31.20;99.90;;;;;;5029488;28;20131;-67
2023/06/25 10:43:59;;;;;;;5.63;4.95;;;31.20;99.90;;;;;;5029672;28;20045;-67
2023/06/25 10:46:32;;;;;;;7.03;4.50;;;31.20;99.90;;;;;;5029219;28;20092;-67
2023/06/25 10:49:01;;;;;;;5.40;4.57;;;31.20;99.90;;;;;;5030547;28;20037;-67
2023/06/25 10:51:28;;;;;;;8.30;4.45;;;31.00;99.90;;;;;;5081681;28;20045;-67
2023/06/25 10:53:57;;;;;;;6.07;4.50;;;30.80;99.90;;;;;;5049447;28;20115;-67
2023/06/25 10:56:23;;;;;;;6.25;4.50;;;30.70;99.90;;;;;;5039195;28;20438;-68
2023/06/25 10:58:57;;;;;;;13.98;4.85;;;30.70;99.90;;;;;;5029294;28;20041;-67
2023/06/25 11:01:23;;;;;;;8.90;4.68;;;30.60;99.90;;;;;;5029603;28;20091;-67
2023/06/25 11:03:49;;;;;;;5.80;4.65;;;30.60;99.90;;;;;;5030379;28;20041;-67
2023/06/25 11:06:14;;;;;;;5.60;4.60;;;30.60;99.90;;;;;;5049414;28;20469;-68
2023/06/25 11:08:42;;;;;;;5.45;4.65;;;30.60;99.90;;;;;;5029438;28;20095;-68
2023/06/25 11:11:07;;;;;;;5.13;4.63;;;30.50;99.90;;;;;;5029441;28;20046;-67
2023/06/25 11:13:33;;;;;;;6.35;4.32;;;30.30;99.90;;;;;;5029706;28;20101;-67
2023/06/25 11:15:58;;;;;;;9.60;5.20;;;30.50;99.90;;;;;;5033067;28;20091;-67
2023/06/25 11:18:24;;;;;;;5.60;5.00;;;30.30;99.90;;;;;;5033449;28;20041;-67
2023/06/25 11:20:50;;;;;;;5.68;4.78;;;30.30;99.90;;;;;;5052699;28;20065;-68
2023/06/25 11:23:16;;;;;;;9.82;4.75;;;30.30;99.90;;;;;;5052719;28;20044;-67
2023/06/25 11:25:42;;;;;;;5.70;4.70;;;30.30;99.90;;;;;;5052500;28;20041;-68
2023/06/25 11:28:11;;;;;;;7.38;5.20;;;30.50;99.90;;;;;;5045493;28;20091;-67
2023/06/25 11:30:36;;;;;;;6.25;5.38;;;30.50;99.90;;;;;;5032824;28;20041;-68
2023/06/25 11:33:10;;;;;;;6.90;5.20;;;30.40;99.90;;;;;;5031069;28;20049;-68
2023/06/25 11:35:36;;;;;;;5.07;4.45;;;30.30;99.90;;;;;;5051138;28;20040;-67
2023/06/25 11:38:01;;;;;;;7.13;4.55;;;30.30;99.90;;;;;;5046501;28;20518;-67
2023/06/25 11:40:29;;;;;;;8.30;5.45;;;30.30;99.90;;;;;;5032374;28;20068;-68
2023/06/25 11:42:55;;;;;;;7.43;4.78;;;30.30;99.90;;;;;;5032235;28;20092;-68
2023/06/25 11:45:21;;;;;;;5.70;4.63;;;30.30;99.90;;;;;;5032325;28;20053;-67
2023/06/25 11:47:55;;;;;;;6.45;4.40;;;30.40;99.90;;;;;;5032027;28;20041;-68
2023/06/25 11:50:26;;;;;;;6.85;5.45;;;30.80;99.90;;;;;;5032968;28;20060;-68
2023/06/25 11:52:55;;;;;;;6.65;4.60;;;30.60;99.90;;;;;;5052169;28;20044;-68
2023/06/25 11:55:21;;;;;;;5.80;4.32;;;30.60;99.90;;;;;;5051936;28;20458;-67
2023/06/25 11:57:50;;;;;;;5.90;4.40;;;30.60;99.90;;;;;;5048775;28;20037;-67
2023/06/25 12:00:17;;;;;;;5.80;4.05;;;30.50;99.90;;;;;;5030181;28;20594;-68
2023/06/25 12:02:43;;;;;;;5.50;4.40;;;30.40;99.90;;;;;;5032016;28;20051;-67
2023/06/25 12:05:09;;;;;;;5.70;4.68;;;30.40;99.90;;;;;;5032614;28;20037;-68
2023/06/25 12:07:35;;;;;;;5.18;4.28;;;30.30;99.90;;;;;;5064292;28;20049;-67
2023/06/25 12:10:00;;;;;;;6.15;4.72;;;30.30;99.90;;;;;;5030508;28;20198;-67
2023/06/25 12:12:26;;;;;;;10.23;3.72;;;30.10;99.90;;;;;;5032117;28;20184;-67
2023/06/25 12:14:52;;;;;;;6.40;3.83;;;30.10;99.90;;;;;;5032018;28;20053;-67
2023/06/25 12:17:17;;;;;;;6.53;4.25;;;30.10;99.90;;;;;;5030167;28;20037;-68
2023/06/25 12:19:43;;;;;;;5.38;3.95;;;30.30;99.90;;;;;;5031712;28;20404;-68
2023/06/25 12:22:09;;;;;;;4.72;3.90;;;30.40;99.90;;;;;;5051412;28;20055;-67
2023/06/25 12:24:35;;;;;;;5.30;4.00;;;30.30;99.90;;;;;;5083208;28;20057;-67
2023/06/25 12:27:00;;;;;;;4.72;3.70;;;30.10;99.90;;;;;;5051717;28;20079;-67
2023/06/25 12:29:26;;;;;;;8.60;3.88;;;30.30;99.90;;;;;;5035356;28;20160;-68
2023/06/25 12:31:52;;;;;;;6.00;3.95;;;30.40;99.90;;;;;;5031657;28;20107;-68